PFCL Airport (Clarks Point) Information

FAA: CLP - ICAO: PFCL

PFCL Airport Location

State Alaska
County Dillingham
City Clarks Point
PFCL Airport is 1 miles east of Clarks Point, AK.
Latitude 58-50-01.3000N
Longitude 158-31-45.8000W
Elevation 79ft

PFCL Airport METARs

METAR PFCL 201856Z AUTO 05013G17KT 10SM FEW019 OVC060 13/08 A2984 RMK AO2 SLP097 T01280083 TSNO
Altimeter 29.84"
Temperature 12.8°C (55.0°F)
Wind 50° at 13KT with gusts to 17KT
Clouds few at 1,900ft overcast at 6,000ft
Visibility 10.0mi
Time observed: 2021-06-20T18:56:00Z

PFCL Airport Details

Status Operational
Activation N/A
Ownership Public
Usage Public
Chart KODIAK
ATC on-site No
Beacon schedule N/A
Beacon color clear green

PFCL Airport Contacts

Owner ALASKA DOT&PF CENTRAL REGION
Owner address PO BOX 196900, ANCHORAGE, AK 99519-6900
Owner phone 907-269-0760
Manager CAPE DECISION LIGHTHOUSE SOCIETY
Manager address BOX 32575, JUNEAU, AK 99803
Manager phone 907-747-7803

PFCL Airport (Clarks Point) Radio Frequencies

PFCL (Airport) Radio Frequencies

UNICOM N/A
Common traffic advisory frequency (CTAF) 122.9